sensor_id;sensor_type;location;lat;lon;timestamp;P1;durP1;ratioP1;P2;durP2;ratioP2
55655;SDS011;41530;52.382;5.270;2024-02-04T00:01:43;4.88;;;1.60;;
55655;SDS011;41530;52.382;5.270;2024-02-04T00:04:11;5.07;;;1.55;;
55655;SDS011;41530;52.382;5.270;2024-02-04T00:06:38;4.97;;;1.75;;
55655;SDS011;41530;52.382;5.270;2024-02-04T00:09:04;6.03;;;1.45;;
55655;SDS011;41530;52.382;5.270;2024-02-04T00:11:31;5.95;;;1.75;;
55655;SDS011;41530;52.382;5.270;2024-02-04T00:13:58;4.17;;;1.40;;
55655;SDS011;41530;52.382;5.270;2024-02-04T00:16:25;3.25;;;1.25;;
55655;SDS011;41530;52.382;5.270;2024-02-04T00:18:51;4.47;;;1.63;;
55655;SDS011;41530;52.382;5.270;2024-02-04T00:21:18;5.10;;;1.67;;
55655;SDS011;41530;52.382;5.270;2024-02-04T00:23:45;4.70;;;1.75;;
55655;SDS011;41530;52.382;5.270;2024-02-04T00:26:12;4.10;;;1.60;;
55655;SDS011;41530;52.382;5.270;2024-02-04T00:28:38;3.15;;;1.55;;
55655;SDS011;41530;52.382;5.270;2024-02-04T00:31:09;4.88;;;1.38;;
55655;SDS011;41530;52.382;5.270;2024-02-04T00:33:35;2.58;;;1.08;;
55655;SDS011;41530;52.382;5.270;2024-02-04T00:36:02;3.65;;;1.27;;
55655;SDS011;41530;52.382;5.270;2024-02-04T00:38:30;2.65;;;1.27;;
55655;SDS011;41530;52.382;5.270;2024-02-04T00:43:48;2.58;;;1.13;;
55655;SDS011;41530;52.382;5.270;2024-02-04T00:46:15;2.83;;;1.10;;
55655;SDS011;41530;52.382;5.270;2024-02-04T00:48:41;3.15;;;1.17;;
55655;SDS011;41530;52.382;5.270;2024-02-04T00:51:08;3.20;;;1.42;;
55655;SDS011;41530;52.382;5.270;2024-02-04T00:53:35;2.60;;;1.30;;
55655;SDS011;41530;52.382;5.270;2024-02-04T00:56:05;3.08;;;1.42;;
55655;SDS011;41530;52.382;5.270;2024-02-04T01:01:13;3.13;;;1.65;;
55655;SDS011;41530;52.382;5.270;2024-02-04T01:09:26;3.30;;;1.45;;
55655;SDS011;41530;52.382;5.270;2024-02-04T01:17:48;4.43;;;1.85;;
55655;SDS011;41530;52.382;5.270;2024-02-04T01:20:15;7.35;;;2.22;;
55655;SDS011;41530;52.382;5.270;2024-02-04T01:22:41;4.15;;;1.95;;
55655;SDS011;41530;52.382;5.270;2024-02-04T01:25:08;4.72;;;1.85;;
55655;SDS011;41530;52.382;5.270;2024-02-04T01:27:35;5.55;;;2.13;;
55655;SDS011;41530;52.382;5.270;2024-02-04T01:30:01;3.70;;;2.17;;
55655;SDS011;41530;52.382;5.270;2024-02-04T01:32:28;4.22;;;1.90;;
55655;SDS011;41530;52.382;5.270;2024-02-04T01:34:55;3.80;;;2.25;;
55655;SDS011;41530;52.382;5.270;2024-02-04T01:37:22;5.43;;;2.17;;
55655;SDS011;41530;52.382;5.270;2024-02-04T01:39:49;6.55;;;2.17;;
55655;SDS011;41530;52.382;5.270;2024-02-04T01:42:16;4.43;;;2.00;;
55655;SDS011;41530;52.382;5.270;2024-02-04T01:44:42;6.03;;;2.33;;
55655;SDS011;41530;52.382;5.270;2024-02-04T01:47:09;7.78;;;2.47;;
55655;SDS011;41530;52.382;5.270;2024-02-04T01:49:36;5.68;;;1.88;;
55655;SDS011;41530;52.382;5.270;2024-02-04T01:52:04;6.53;;;2.33;;
55655;SDS011;41530;52.382;5.270;2024-02-04T01:54:33;4.18;;;1.90;;
55655;SDS011;41530;52.382;5.270;2024-02-04T01:57:01;6.30;;;2.05;;
55655;SDS011;41530;52.382;5.270;2024-02-04T01:59:28;6.15;;;1.73;;
55655;SDS011;41530;52.382;5.270;2024-02-04T02:01:58;6.53;;;1.80;;
55655;SDS011;41530;52.382;5.270;2024-02-04T02:04:26;9.20;;;2.30;;
55655;SDS011;41530;52.382;5.270;2024-02-04T02:06:55;5.50;;;1.73;;
55655;SDS011;41530;52.382;5.270;2024-02-04T02:09:22;6.63;;;1.80;;
55655;SDS011;41530;52.382;5.270;2024-02-04T02:20:35;7.10;;;2.03;;
55655;SDS011;41530;52.382;5.270;2024-02-04T02:23:22;6.85;;;2.15;;
55655;SDS011;41530;52.382;5.270;2024-02-04T02:26:02;7.57;;;2.05;;
55655;SDS011;41530;52.382;5.270;2024-02-04T02:28:31;9.55;;;2.20;;
55655;SDS011;41530;52.382;5.270;2024-02-04T02:30:58;6.72;;;1.92;;
55655;SDS011;41530;52.382;5.270;2024-02-04T02:33:26;7.28;;;1.88;;
55655;SDS011;41530;52.382;5.270;2024-02-04T02:35:54;7.30;;;2.00;;
55655;SDS011;41530;52.382;5.270;2024-02-04T02:38:25;3.83;;;1.83;;
55655;SDS011;41530;52.382;5.270;2024-02-04T02:41:03;6.20;;;2.00;;
55655;SDS011;41530;52.382;5.270;2024-02-04T02:43:30;9.10;;;1.90;;
55655;SDS011;41530;52.382;5.270;2024-02-04T02:45:59;5.68;;;1.88;;
55655;SDS011;41530;52.382;5.270;2024-02-04T02:48:27;4.57;;;1.77;;
55655;SDS011;41530;52.382;5.270;2024-02-04T02:50:54;4.07;;;1.75;;
55655;SDS011;41530;52.382;5.270;2024-02-04T02:53:20;10.02;;;1.95;;
55655;SDS011;41530;52.382;5.270;2024-02-04T02:55:47;7.57;;;1.88;;
55655;SDS011;41530;52.382;5.270;2024-02-04T02:58:14;6.05;;;1.58;;
55655;SDS011;41530;52.382;5.270;2024-02-04T03:00:40;6.90;;;1.70;;
55655;SDS011;41530;52.382;5.270;2024-02-04T03:03:07;7.43;;;1.88;;
55655;SDS011;41530;52.382;5.270;2024-02-04T03:05:34;7.13;;;1.55;;
55655;SDS011;41530;52.382;5.270;2024-02-04T03:08:01;8.93;;;1.60;;
55655;SDS011;41530;52.382;5.270;2024-02-04T03:10:27;10.75;;;1.98;;
55655;SDS011;41530;52.382;5.270;2024-02-04T03:12:54;5.25;;;1.58;;
55655;SDS011;41530;52.382;5.270;2024-02-04T03:18:09;3.75;;;1.17;;
55655;SDS011;41530;52.382;5.270;2024-02-04T03:23:05;7.78;;;1.45;;
55655;SDS011;41530;52.382;5.270;2024-02-04T03:25:32;7.68;;;1.80;;
55655;SDS011;41530;52.382;5.270;2024-02-04T03:27:58;4.38;;;1.30;;
55655;SDS011;41530;52.382;5.270;2024-02-04T03:30:25;5.80;;;1.40;;
55655;SDS011;41530;52.382;5.270;2024-02-04T03:32:52;4.80;;;1.60;;
55655;SDS011;41530;52.382;5.270;2024-02-04T03:35:19;9.25;;;1.48;;
55655;SDS011;41530;52.382;5.270;2024-02-04T03:37:45;6.38;;;1.40;;
55655;SDS011;41530;52.382;5.270;2024-02-04T03:40:12;7.05;;;2.38;;
55655;SDS011;41530;52.382;5.270;2024-02-04T03:42:39;2.97;;;1.00;;
55655;SDS011;41530;52.382;5.270;2024-02-04T03:45:07;3.85;;;1.33;;
55655;SDS011;41530;52.382;5.270;2024-02-04T03:50:22;5.72;;;1.10;;
55655;SDS011;41530;52.382;5.270;2024-02-04T03:52:49;8.40;;;1.95;;
55655;SDS011;41530;52.382;5.270;2024-02-04T03:55:15;3.97;;;1.17;;
55655;SDS011;41530;52.382;5.270;2024-02-04T03:57:42;9.27;;;1.58;;
55655;SDS011;41530;52.382;5.270;2024-02-04T04:00:09;4.47;;;1.20;;
55655;SDS011;41530;52.382;5.270;2024-02-04T04:02:36;8.73;;;1.80;;
55655;SDS011;41530;52.382;5.270;2024-02-04T04:05:02;5.82;;;1.25;;
55655;SDS011;41530;52.382;5.270;2024-02-04T04:07:29;6.90;;;1.23;;
55655;SDS011;41530;52.382;5.270;2024-02-04T04:09:56;3.35;;;1.20;;
55655;SDS011;41530;52.382;5.270;2024-02-04T04:12:23;7.97;;;1.58;;
55655;SDS011;41530;52.382;5.270;2024-02-04T04:14:50;7.10;;;1.67;;
55655;SDS011;41530;52.382;5.270;2024-02-04T04:17:16;5.53;;;1.40;;
55655;SDS011;41530;52.382;5.270;2024-02-04T04:19:43;4.00;;;1.20;;
55655;SDS011;41530;52.382;5.270;2024-02-04T04:22:10;4.32;;;1.27;;
55655;SDS011;41530;52.382;5.270;2024-02-04T04:24:38;7.53;;;1.63;;
55655;SDS011;41530;52.382;5.270;2024-02-04T04:27:04;5.10;;;1.25;;
55655;SDS011;41530;52.382;5.270;2024-02-04T04:29:31;8.65;;;2.03;;
55655;SDS011;41530;52.382;5.270;2024-02-04T04:31:58;6.32;;;1.38;;
55655;SDS011;41530;52.382;5.270;2024-02-04T04:34:28;6.10;;;1.77;;
55655;SDS011;41530;52.382;5.270;2024-02-04T04:36:55;6.30;;;1.63;;
55655;SDS011;41530;52.382;5.270;2024-02-04T04:42:15;9.48;;;1.58;;
55655;SDS011;41530;52.382;5.270;2024-02-04T04:44:42;7.88;;;1.23;;
55655;SDS011;41530;52.382;5.270;2024-02-04T04:47:08;6.00;;;1.50;;
55655;SDS011;41530;52.382;5.270;2024-02-04T04:49:35;11.27;;;1.70;;
55655;SDS011;41530;52.382;5.270;2024-02-04T04:52:02;11.20;;;1.45;;
55655;SDS011;41530;52.382;5.270;2024-02-04T04:54:29;5.43;;;1.20;;
55655;SDS011;41530;52.382;5.270;2024-02-04T04:56:55;9.68;;;1.92;;
55655;SDS011;41530;52.382;5.270;2024-02-04T04:59:22;8.05;;;1.25;;
55655;SDS011;41530;52.382;5.270;2024-02-04T05:01:49;6.35;;;1.27;;
55655;SDS011;41530;52.382;5.270;2024-02-04T05:04:16;8.82;;;1.55;;
55655;SDS011;41530;52.382;5.270;2024-02-04T05:06:45;9.43;;;1.80;;
55655;SDS011;41530;52.382;5.270;2024-02-04T05:09:12;8.55;;;1.58;;
55655;SDS011;41530;52.382;5.270;2024-02-04T05:11:38;8.73;;;1.48;;
55655;SDS011;41530;52.382;5.270;2024-02-04T05:14:05;4.05;;;1.42;;
55655;SDS011;41530;52.382;5.270;2024-02-04T05:16:32;9.75;;;1.80;;
55655;SDS011;41530;52.382;5.270;2024-02-04T05:18:59;7.93;;;1.80;;
55655;SDS011;41530;52.382;5.270;2024-02-04T05:24:07;6.80;;;1.55;;
55655;SDS011;41530;52.382;5.270;2024-02-04T05:26:34;6.40;;;1.45;;
55655;SDS011;41530;52.382;5.270;2024-02-04T05:29:00;4.82;;;1.42;;
55655;SDS011;41530;52.382;5.270;2024-02-04T05:31:27;9.05;;;1.75;;
55655;SDS011;41530;52.382;5.270;2024-02-04T05:33:55;9.98;;;1.60;;
55655;SDS011;41530;52.382;5.270;2024-02-04T05:36:23;9.50;;;1.90;;
55655;SDS011;41530;52.382;5.270;2024-02-04T05:38:53;8.73;;;1.67;;
55655;SDS011;41530;52.382;5.270;2024-02-04T05:41:20;6.82;;;1.73;;
55655;SDS011;41530;52.382;5.270;2024-02-04T05:43:46;7.75;;;1.60;;
55655;SDS011;41530;52.382;5.270;2024-02-04T05:46:13;7.78;;;1.63;;
55655;SDS011;41530;52.382;5.270;2024-02-04T05:51:25;10.43;;;1.92;;
55655;SDS011;41530;52.382;5.270;2024-02-04T05:53:51;10.20;;;1.88;;
55655;SDS011;41530;52.382;5.270;2024-02-04T05:56:18;8.73;;;1.80;;
55655;SDS011;41530;52.382;5.270;2024-02-04T05:58:44;8.20;;;1.70;;
55655;SDS011;41530;52.382;5.270;2024-02-04T06:01:11;10.88;;;2.13;;
55655;SDS011;41530;52.382;5.270;2024-02-04T06:03:38;4.60;;;1.63;;
55655;SDS011;41530;52.382;5.270;2024-02-04T06:06:05;11.95;;;2.08;;
55655;SDS011;41530;52.382;5.270;2024-02-04T06:08:32;6.65;;;1.58;;
55655;SDS011;41530;52.382;5.270;2024-02-04T06:10:58;9.35;;;1.60;;
55655;SDS011;41530;52.382;5.270;2024-02-04T06:13:25;6.85;;;1.52;;
55655;SDS011;41530;52.382;5.270;2024-02-04T06:15:52;10.55;;;1.70;;
55655;SDS011;41530;52.382;5.270;2024-02-04T06:18:18;6.68;;;1.30;;
55655;SDS011;41530;52.382;5.270;2024-02-04T06:20:45;7.60;;;1.48;;
55655;SDS011;41530;52.382;5.270;2024-02-04T06:23:12;5.43;;;1.38;;
55655;SDS011;41530;52.382;5.270;2024-02-04T06:25:38;8.13;;;1.50;;
55655;SDS011;41530;52.382;5.270;2024-02-04T06:28:05;8.07;;;1.70;;
55655;SDS011;41530;52.382;5.270;2024-02-04T06:30:33;5.88;;;1.40;;
55655;SDS011;41530;52.382;5.270;2024-02-04T06:33:00;7.10;;;1.42;;
55655;SDS011;41530;52.382;5.270;2024-02-04T06:35:26;8.52;;;1.83;;
55655;SDS011;41530;52.382;5.270;2024-02-04T06:37:53;6.65;;;1.42;;
55655;SDS011;41530;52.382;5.270;2024-02-04T06:40:26;9.63;;;1.38;;
55655;SDS011;41530;52.382;5.270;2024-02-04T06:45:33;11.25;;;2.00;;
55655;SDS011;41530;52.382;5.270;2024-02-04T06:48:00;9.50;;;1.58;;
55655;SDS011;41530;52.382;5.270;2024-02-04T06:50:27;5.75;;;1.65;;
55655;SDS011;41530;52.382;5.270;2024-02-04T06:52:53;8.43;;;1.35;;
55655;SDS011;41530;52.382;5.270;2024-02-04T06:57:55;4.85;;;1.50;;
55655;SDS011;41530;52.382;5.270;2024-02-04T07:00:22;8.45;;;2.20;;
55655;SDS011;41530;52.382;5.270;2024-02-04T07:02:48;6.45;;;1.52;;
55655;SDS011;41530;52.382;5.270;2024-02-04T07:05:15;6.20;;;1.45;;
55655;SDS011;41530;52.382;5.270;2024-02-04T07:07:42;7.63;;;1.45;;
55655;SDS011;41530;52.382;5.270;2024-02-04T07:10:09;7.85;;;1.65;;
55655;SDS011;41530;52.382;5.270;2024-02-04T07:12:36;7.28;;;1.40;;
55655;SDS011;41530;52.382;5.270;2024-02-04T07:15:06;6.05;;;1.58;;
55655;SDS011;41530;52.382;5.270;2024-02-04T07:20:09;4.22;;;1.55;;
55655;SDS011;41530;52.382;5.270;2024-02-04T07:22:36;4.60;;;1.35;;
55655;SDS011;41530;52.382;5.270;2024-02-04T07:25:03;3.92;;;1.20;;
55655;SDS011;41530;52.382;5.270;2024-02-04T07:27:30;4.30;;;1.20;;
55655;SDS011;41530;52.382;5.270;2024-02-04T07:29:57;6.28;;;1.23;;
55655;SDS011;41530;52.382;5.270;2024-02-04T07:32:24;3.85;;;1.30;;
55655;SDS011;41530;52.382;5.270;2024-02-04T07:34:51;3.42;;;1.10;;
55655;SDS011;41530;52.382;5.270;2024-02-04T07:37:17;4.85;;;1.20;;
55655;SDS011;41530;52.382;5.270;2024-02-04T07:39:44;5.22;;;1.58;;
55655;SDS011;41530;52.382;5.270;2024-02-04T07:42:11;6.57;;;1.70;;
55655;SDS011;41530;52.382;5.270;2024-02-04T07:44:38;5.35;;;1.52;;
55655;SDS011;41530;52.382;5.270;2024-02-04T07:47:04;3.38;;;1.02;;
55655;SDS011;41530;52.382;5.270;2024-02-04T07:49:31;3.50;;;1.20;;
55655;SDS011;41530;52.382;5.270;2024-02-04T07:51:58;4.20;;;1.20;;
55655;SDS011;41530;52.382;5.270;2024-02-04T07:54:24;5.35;;;1.30;;
55655;SDS011;41530;52.382;5.270;2024-02-04T07:56:51;2.13;;;1.10;;
55655;SDS011;41530;52.382;5.270;2024-02-04T07:59:18;6.45;;;1.30;;
55655;SDS011;41530;52.382;5.270;2024-02-04T08:01:44;5.82;;;1.08;;
55655;SDS011;41530;52.382;5.270;2024-02-04T08:04:11;2.30;;;1.00;;
55655;SDS011;41530;52.382;5.270;2024-02-04T08:06:38;3.67;;;1.27;;
55655;SDS011;41530;52.382;5.270;2024-02-04T08:09:05;3.22;;;1.05;;
55655;SDS011;41530;52.382;5.270;2024-02-04T08:11:32;2.17;;;1.00;;
55655;SDS011;41530;52.382;5.270;2024-02-04T08:13:59;4.65;;;1.35;;
55655;SDS011;41530;52.382;5.270;2024-02-04T08:16:26;2.20;;;1.02;;
55655;SDS011;41530;52.382;5.270;2024-02-04T08:18:53;2.85;;;1.00;;
55655;SDS011;41530;52.382;5.270;2024-02-04T08:21:20;3.00;;;1.00;;
55655;SDS011;41530;52.382;5.270;2024-02-04T08:23:46;5.30;;;1.30;;
55655;SDS011;41530;52.382;5.270;2024-02-04T08:26:13;3.75;;;1.30;;
55655;SDS011;41530;52.382;5.270;2024-02-04T08:28:40;4.90;;;1.70;;
55655;SDS011;41530;52.382;5.270;2024-02-04T08:31:06;5.68;;;1.20;;
55655;SDS011;41530;52.382;5.270;2024-02-04T08:33:34;4.25;;;1.17;;
55655;SDS011;41530;52.382;5.270;2024-02-04T08:36:00;3.38;;;1.20;;
55655;SDS011;41530;52.382;5.270;2024-02-04T08:38:27;2.88;;;1.08;;
55655;SDS011;41530;52.382;5.270;2024-02-04T08:40:54;4.93;;;1.17;;
55655;SDS011;41530;52.382;5.270;2024-02-04T08:43:20;4.10;;;1.10;;
55655;SDS011;41530;52.382;5.270;2024-02-04T08:45:47;4.10;;;1.15;;
55655;SDS011;41530;52.382;5.270;2024-02-04T08:48:14;2.72;;;0.98;;
55655;SDS011;41530;52.382;5.270;2024-02-04T08:50:40;2.78;;;0.95;;
55655;SDS011;41530;52.382;5.270;2024-02-04T08:53:10;5.10;;;1.30;;
55655;SDS011;41530;52.382;5.270;2024-02-04T08:55:36;3.92;;;1.00;;
55655;SDS011;41530;52.382;5.270;2024-02-04T08:58:03;3.65;;;1.10;;
55655;SDS011;41530;52.382;5.270;2024-02-04T09:00:30;4.55;;;1.40;;
55655;SDS011;41530;52.382;5.270;2024-02-04T09:02:56;5.78;;;1.48;;
55655;SDS011;41530;52.382;5.270;2024-02-04T09:05:23;4.90;;;0.95;;
55655;SDS011;41530;52.382;5.270;2024-02-04T09:07:50;2.35;;;1.20;;
55655;SDS011;41530;52.382;5.270;2024-02-04T09:10:16;6.03;;;1.23;;
55655;SDS011;41530;52.382;5.270;2024-02-04T09:12:43;4.20;;;1.00;;
55655;SDS011;41530;52.382;5.270;2024-02-04T09:15:10;4.60;;;1.35;;
55655;SDS011;41530;52.382;5.270;2024-02-04T09:17:37;6.75;;;1.42;;
55655;SDS011;41530;52.382;5.270;2024-02-04T09:20:04;4.07;;;1.20;;
55655;SDS011;41530;52.382;5.270;2024-02-04T09:22:31;4.80;;;1.40;;
55655;SDS011;41530;52.382;5.270;2024-02-04T09:24:58;9.15;;;1.35;;
55655;SDS011;41530;52.382;5.270;2024-02-04T09:27:25;4.70;;;1.20;;
55655;SDS011;41530;52.382;5.270;2024-02-04T09:29:52;6.35;;;1.50;;
55655;SDS011;41530;52.382;5.270;2024-02-04T09:32:21;6.43;;;1.45;;
55655;SDS011;41530;52.382;5.270;2024-02-04T09:34:48;5.00;;;1.45;;
55655;SDS011;41530;52.382;5.270;2024-02-04T09:37:15;6.43;;;1.50;;
55655;SDS011;41530;52.382;5.270;2024-02-04T09:39:43;6.00;;;1.38;;
55655;SDS011;41530;52.382;5.270;2024-02-04T09:42:10;3.63;;;1.23;;
55655;SDS011;41530;52.382;5.270;2024-02-04T09:44:45;4.60;;;1.40;;
55655;SDS011;41530;52.382;5.270;2024-02-04T09:47:12;5.18;;;1.50;;
55655;SDS011;41530;52.382;5.270;2024-02-04T09:49:41;5.30;;;1.52;;
55655;SDS011;41530;52.382;5.270;2024-02-04T09:52:09;4.10;;;1.20;;
55655;SDS011;41530;52.382;5.270;2024-02-04T09:54:38;6.43;;;1.58;;
55655;SDS011;41530;52.382;5.270;2024-02-04T09:57:13;5.57;;;1.25;;
55655;SDS011;41530;52.382;5.270;2024-02-04T09:59:41;7.03;;;1.88;;
55655;SDS011;41530;52.382;5.270;2024-02-04T10:02:09;2.53;;;0.98;;
55655;SDS011;41530;52.382;5.270;2024-02-04T10:04:36;4.93;;;1.10;;
55655;SDS011;41530;52.382;5.270;2024-02-04T10:07:04;3.95;;;1.25;;
55655;SDS011;41530;52.382;5.270;2024-02-04T10:09:31;6.47;;;1.00;;
55655;SDS011;41530;52.382;5.270;2024-02-04T10:11:58;5.05;;;1.30;;
55655;SDS011;41530;52.382;5.270;2024-02-04T10:14:25;4.63;;;1.30;;
55655;SDS011;41530;52.382;5.270;2024-02-04T10:16:52;5.28;;;1.25;;
55655;SDS011;41530;52.382;5.270;2024-02-04T10:19:19;6.35;;;1.40;;
55655;SDS011;41530;52.382;5.270;2024-02-04T10:21:46;6.43;;;1.33;;
55655;SDS011;41530;52.382;5.270;2024-02-04T10:24:23;5.18;;;1.13;;
55655;SDS011;41530;52.382;5.270;2024-02-04T10:26:50;7.38;;;1.30;;
55655;SDS011;41530;52.382;5.270;2024-02-04T10:29:17;1.50;;;0.73;;
55655;SDS011;41530;52.382;5.270;2024-02-04T10:31:44;6.38;;;1.02;;
55655;SDS011;41530;52.382;5.270;2024-02-04T10:34:11;2.30;;;0.70;;
55655;SDS011;41530;52.382;5.270;2024-02-04T10:36:38;3.13;;;0.95;;
55655;SDS011;41530;52.382;5.270;2024-02-04T10:39:04;4.55;;;1.10;;
55655;SDS011;41530;52.382;5.270;2024-02-04T10:41:33;2.38;;;0.60;;
55655;SDS011;41530;52.382;5.270;2024-02-04T10:44:01;2.63;;;0.80;;
55655;SDS011;41530;52.382;5.270;2024-02-04T10:46:30;6.03;;;1.10;;
55655;SDS011;41530;52.382;5.270;2024-02-04T10:49:02;3.80;;;1.02;;
55655;SDS011;41530;52.382;5.270;2024-02-04T10:51:33;4.07;;;1.20;;
55655;SDS011;41530;52.382;5.270;2024-02-04T10:54:02;2.47;;;0.93;;
55655;SDS011;41530;52.382;5.270;2024-02-04T10:56:38;3.42;;;0.90;;
55655;SDS011;41530;52.382;5.270;2024-02-04T10:59:07;2.17;;;0.80;;
55655;SDS011;41530;52.382;5.270;2024-02-04T11:01:38;5.80;;;0.80;;
55655;SDS011;41530;52.382;5.270;2024-02-04T11:04:06;5.13;;;1.10;;
55655;SDS011;41530;52.382;5.270;2024-02-04T11:06:35;3.53;;;1.05;;
55655;SDS011;41530;52.382;5.270;2024-02-04T11:09:03;6.38;;;1.50;;
55655;SDS011;41530;52.382;5.270;2024-02-04T11:11:32;4.65;;;1.10;;
55655;SDS011;41530;52.382;5.270;2024-02-04T11:14:00;6.18;;;1.40;;
55655;SDS011;41530;52.382;5.270;2024-02-04T11:19:16;4.63;;;1.10;;
55655;SDS011;41530;52.382;5.270;2024-02-04T11:24:58;4.38;;;1.00;;
55655;SDS011;41530;52.382;5.270;2024-02-04T11:27:45;5.80;;;1.27;;
55655;SDS011;41530;52.382;5.270;2024-02-04T11:30:12;5.05;;;1.20;;
55655;SDS011;41530;52.382;5.270;2024-02-04T11:32:41;6.65;;;1.20;;
55655;SDS011;41530;52.382;5.270;2024-02-04T11:35:08;4.97;;;1.27;;
55655;SDS011;41530;52.382;5.270;2024-02-04T11:37:38;3.80;;;1.15;;
55655;SDS011;41530;52.382;5.270;2024-02-04T11:40:13;4.78;;;1.30;;
55655;SDS011;41530;52.382;5.270;2024-02-04T11:42:42;4.47;;;1.08;;
55655;SDS011;41530;52.382;5.270;2024-02-04T11:45:11;4.90;;;1.35;;
55655;SDS011;41530;52.382;5.270;2024-02-04T11:47:39;5.47;;;1.40;;
55655;SDS011;41530;52.382;5.270;2024-02-04T11:50:07;6.22;;;1.35;;
55655;SDS011;41530;52.382;5.270;2024-02-04T11:52:36;3.38;;;1.13;;
55655;SDS011;41530;52.382;5.270;2024-02-04T11:55:03;7.15;;;1.08;;
55655;SDS011;41530;52.382;5.270;2024-02-04T11:57:33;4.32;;;1.63;;
55655;SDS011;41530;52.382;5.270;2024-02-04T12:00:00;2.42;;;0.95;;
55655;SDS011;41530;52.382;5.270;2024-02-04T12:02:32;3.38;;;1.20;;
55655;SDS011;41530;52.382;5.270;2024-02-04T12:04:59;4.47;;;1.17;;
55655;SDS011;41530;52.382;5.270;2024-02-04T12:07:27;4.53;;;1.30;;
55655;SDS011;41530;52.382;5.270;2024-02-04T12:09:56;4.78;;;1.20;;
55655;SDS011;41530;52.382;5.270;2024-02-04T12:12:23;5.20;;;1.20;;
55655;SDS011;41530;52.382;5.270;2024-02-04T12:14:51;4.97;;;0.98;;
55655;SDS011;41530;52.382;5.270;2024-02-04T12:17:19;3.95;;;1.10;;
55655;SDS011;41530;52.382;5.270;2024-02-04T12:19:46;3.85;;;1.25;;
55655;SDS011;41530;52.382;5.270;2024-02-04T12:22:13;3.28;;;1.05;;
55655;SDS011;41530;52.382;5.270;2024-02-04T12:24:40;3.90;;;1.40;;
55655;SDS011;41530;52.382;5.270;2024-02-04T12:27:07;3.28;;;1.23;;
55655;SDS011;41530;52.382;5.270;2024-02-04T12:29:33;3.55;;;1.20;;
55655;SDS011;41530;52.382;5.270;2024-02-04T12:32:01;3.85;;;1.20;;
55655;SDS011;41530;52.382;5.270;2024-02-04T12:34:33;3.72;;;1.05;;
55655;SDS011;41530;52.382;5.270;2024-02-04T12:37:01;6.10;;;1.35;;
55655;SDS011;41530;52.382;5.270;2024-02-04T12:39:28;6.13;;;1.45;;
55655;SDS011;41530;52.382;5.270;2024-02-04T12:41:55;1.80;;;1.10;;
55655;SDS011;41530;52.382;5.270;2024-02-04T12:44:22;6.57;;;1.40;;
55655;SDS011;41530;52.382;5.270;2024-02-04T12:46:52;4.10;;;1.25;;
55655;SDS011;41530;52.382;5.270;2024-02-04T12:49:19;2.88;;;1.00;;
55655;SDS011;41530;52.382;5.270;2024-02-04T12:51:48;4.32;;;1.10;;
55655;SDS011;41530;52.382;5.270;2024-02-04T12:54:15;4.32;;;1.23;;
55655;SDS011;41530;52.382;5.270;2024-02-04T12:56:43;3.50;;;1.10;;
55655;SDS011;41530;52.382;5.270;2024-02-04T12:59:26;1.83;;;0.88;;
55655;SDS011;41530;52.382;5.270;2024-02-04T13:01:58;4.18;;;1.15;;
55655;SDS011;41530;52.382;5.270;2024-02-04T13:04:35;3.83;;;1.27;;
55655;SDS011;41530;52.382;5.270;2024-02-04T13:07:09;3.13;;;0.93;;
55655;SDS011;41530;52.382;5.270;2024-02-04T13:09:40;4.97;;;1.27;;
55655;SDS011;41530;52.382;5.270;2024-02-04T13:12:08;2.67;;;0.98;;
55655;SDS011;41530;52.382;5.270;2024-02-04T13:14:41;4.25;;;1.02;;
55655;SDS011;41530;52.382;5.270;2024-02-04T13:17:08;1.85;;;0.80;;
55655;SDS011;41530;52.382;5.270;2024-02-04T13:19:35;3.15;;;1.08;;
55655;SDS011;41530;52.382;5.270;2024-02-04T13:22:03;2.65;;;0.93;;
55655;SDS011;41530;52.382;5.270;2024-02-04T13:24:33;8.15;;;1.20;;
55655;SDS011;41530;52.382;5.270;2024-02-04T13:27:01;3.33;;;1.15;;
55655;SDS011;41530;52.382;5.270;2024-02-04T13:29:29;2.30;;;0.90;;
55655;SDS011;41530;52.382;5.270;2024-02-04T13:31:56;7.93;;;1.20;;
55655;SDS011;41530;52.382;5.270;2024-02-04T13:34:23;2.53;;;1.20;;
55655;SDS011;41530;52.382;5.270;2024-02-04T13:36:50;2.35;;;0.80;;
55655;SDS011;41530;52.382;5.270;2024-02-04T13:39:18;3.83;;;1.13;;
55655;SDS011;41530;52.382;5.270;2024-02-04T13:41:44;7.05;;;1.52;;
55655;SDS011;41530;52.382;5.270;2024-02-04T13:44:11;3.33;;;1.15;;
55655;SDS011;41530;52.382;5.270;2024-02-04T13:46:38;5.40;;;1.17;;
55655;SDS011;41530;52.382;5.270;2024-02-04T13:49:09;3.15;;;1.10;;
55655;SDS011;41530;52.382;5.270;2024-02-04T13:51:36;3.55;;;0.95;;
55655;SDS011;41530;52.382;5.270;2024-02-04T13:54:10;3.47;;;1.15;;
55655;SDS011;41530;52.382;5.270;2024-02-04T13:56:43;2.70;;;1.27;;
55655;SDS011;41530;52.382;5.270;2024-02-04T13:59:09;3.65;;;1.02;;
55655;SDS011;41530;52.382;5.270;2024-02-04T14:01:36;4.43;;;1.17;;
55655;SDS011;41530;52.382;5.270;2024-02-04T14:04:03;4.45;;;1.20;;
55655;SDS011;41530;52.382;5.270;2024-02-04T14:06:30;5.22;;;1.13;;
55655;SDS011;41530;52.382;5.270;2024-02-04T14:08:57;5.10;;;1.15;;
55655;SDS011;41530;52.382;5.270;2024-02-04T14:11:23;3.00;;;0.90;;
55655;SDS011;41530;52.382;5.270;2024-02-04T14:13:50;4.65;;;1.30;;
55655;SDS011;41530;52.382;5.270;2024-02-04T14:16:16;5.75;;;1.10;;
55655;SDS011;41530;52.382;5.270;2024-02-04T14:18:43;3.00;;;0.95;;
55655;SDS011;41530;52.382;5.270;2024-02-04T14:21:12;5.97;;;1.27;;
55655;SDS011;41530;52.382;5.270;2024-02-04T14:23:42;4.25;;;1.05;;
55655;SDS011;41530;52.382;5.270;2024-02-04T14:26:19;3.35;;;0.85;;
55655;SDS011;41530;52.382;5.270;2024-02-04T14:28:47;3.40;;;1.02;;
55655;SDS011;41530;52.382;5.270;2024-02-04T14:31:14;3.05;;;1.00;;
55655;SDS011;41530;52.382;5.270;2024-02-04T14:33:41;2.85;;;1.00;;
55655;SDS011;41530;52.382;5.270;2024-02-04T14:36:09;4.35;;;1.15;;
55655;SDS011;41530;52.382;5.270;2024-02-04T14:38:36;4.13;;;1.00;;
55655;SDS011;41530;52.382;5.270;2024-02-04T14:41:05;2.80;;;0.88;;
55655;SDS011;41530;52.382;5.270;2024-02-04T14:43:32;5.90;;;1.10;;
55655;SDS011;41530;52.382;5.270;2024-02-04T14:45:59;4.63;;;0.93;;
55655;SDS011;41530;52.382;5.270;2024-02-04T14:48:26;2.35;;;0.80;;
55655;SDS011;41530;52.382;5.270;2024-02-04T14:50:53;3.40;;;0.60;;
55655;SDS011;41530;52.382;5.270;2024-02-04T14:53:20;3.20;;;1.00;;
55655;SDS011;41530;52.382;5.270;2024-02-04T14:55:47;3.22;;;0.88;;
55655;SDS011;41530;52.382;5.270;2024-02-04T14:58:13;2.65;;;1.08;;
55655;SDS011;41530;52.382;5.270;2024-02-04T15:00:40;3.90;;;1.05;;
55655;SDS011;41530;52.382;5.270;2024-02-04T15:03:07;7.15;;;1.10;;
55655;SDS011;41530;52.382;5.270;2024-02-04T15:05:33;2.40;;;0.98;;
55655;SDS011;41530;52.382;5.270;2024-02-04T15:08:00;2.15;;;0.90;;
55655;SDS011;41530;52.382;5.270;2024-02-04T15:10:27;4.30;;;1.15;;
55655;SDS011;41530;52.382;5.270;2024-02-04T15:12:53;2.92;;;1.10;;
55655;SDS011;41530;52.382;5.270;2024-02-04T15:15:21;3.80;;;1.13;;
55655;SDS011;41530;52.382;5.270;2024-02-04T15:17:48;2.17;;;0.90;;
55655;SDS011;41530;52.382;5.270;2024-02-04T15:20:15;3.28;;;1.00;;
55655;SDS011;41530;52.382;5.270;2024-02-04T15:22:45;2.25;;;0.85;;
55655;SDS011;41530;52.382;5.270;2024-02-04T15:25:12;3.55;;;1.13;;
55655;SDS011;41530;52.382;5.270;2024-02-04T15:27:41;3.47;;;0.95;;
55655;SDS011;41530;52.382;5.270;2024-02-04T15:30:13;3.03;;;1.25;;
55655;SDS011;41530;52.382;5.270;2024-02-04T15:32:40;3.88;;;1.20;;
55655;SDS011;41530;52.382;5.270;2024-02-04T15:35:09;4.10;;;1.10;;
55655;SDS011;41530;52.382;5.270;2024-02-04T15:37:36;2.97;;;0.90;;
55655;SDS011;41530;52.382;5.270;2024-02-04T15:40:03;2.05;;;0.80;;
55655;SDS011;41530;52.382;5.270;2024-02-04T15:42:30;2.95;;;0.95;;
55655;SDS011;41530;52.382;5.270;2024-02-04T15:44:57;2.28;;;0.98;;
55655;SDS011;41530;52.382;5.270;2024-02-04T15:47:23;2.17;;;0.90;;